Time;durP1;ratioP1;P1;durP2;ratioP2;P2;SDS_P1;SDS_P2;PMS_P1;PMS_P2;Temp;Humidity;BMP_temperature;BMP_pressure;BME280_temperature;BME280_humidity;BME280_pressure;Samples;Min_cycle;Max_cycle;Signal;HPM_P1;HPM_P2
2023/04/03 00:00:38;;;;;;;;;;;;;;;28.08;26.49;100064.91;5066776;28;1141;-26
2023/04/03 00:03:04;;;;;;;;;;;;;;;28.24;26.39;100052.84;5079657;28;1917;-27
2023/04/03 00:05:29;;;;;;;;;;;;;;;28.21;26.07;100050.56;5080059;28;1043;-28
2023/04/03 00:07:55;;;;;;;;;;;;;;;27.19;27.91;100051.31;5085308;28;1217;-26
2023/04/03 00:10:21;;;;;;;;;;;;;;;27.85;26.80;100049.06;5080161;28;1126;-31
2023/04/03 00:12:46;;;;;;;;;;;;;;;28.19;26.35;100047.25;5079685;28;1180;-27
2023/04/03 00:15:12;;;;;;;;;;;;;;;28.27;26.38;100050.78;5079505;28;1126;-29
2023/04/03 00:17:38;;;;;;;;;;;;;;;28.08;26.08;100050.53;5079436;28;1047;-30
2023/04/03 00:20:03;;;;;;;;;;;;;;;26.99;28.38;100052.84;5079729;28;1031;-31
2023/04/03 00:22:29;;;;;;;;;;;;;;;27.96;26.78;100047.66;5067029;28;1914;-27
2023/04/03 00:24:55;;;;;;;;;;;;;;;28.12;26.71;100054.53;5073351;28;1039;-28
2023/04/03 00:27:20;;;;;;;;;;;;;;;28.33;26.03;100052.66;5059754;28;1131;-29
2023/04/03 00:29:46;;;;;;;;;;;;;;;27.46;27.38;100040.63;5060965;28;1036;-29
2023/04/03 00:32:11;;;;;;;;;;;;;;;27.28;27.71;100046.59;5079604;28;1071;-25
2023/04/03 00:34:37;;;;;;;;;;;;;;;27.87;27.00;100047.00;5073416;28;1078;-26
2023/04/03 00:37:03;;;;;;;;;;;;;;;28.03;26.83;100047.66;5072342;28;1115;-31
2023/04/03 00:39:28;;;;;;;;;;;;;;;28.20;26.27;100048.91;5079168;28;1121;-25
2023/04/03 00:41:54;;;;;;;;;;;;;;;27.39;27.70;100043.31;5079156;28;1971;-28
2023/04/03 00:44:40;;;;;;;;;;;;;;;27.23;28.00;100048.03;5066041;28;1126;-29
2023/04/03 00:47:06;;;;;;;;;;;;;;;28.04;26.58;100044.75;5074725;28;1080;-27
2023/04/03 00:49:32;;;;;;;;;;;;;;;28.26;26.26;100049.94;5079037;28;1154;-31
2023/04/03 00:51:58;;;;;;;;;;;;;;;28.02;26.74;100043.28;5079020;28;1127;-27
2023/04/03 00:54:23;;;;;;;;;;;;;;;26.99;28.52;100043.94;5061524;28;1167;-31
2023/04/03 00:56:50;;;;;;;;;;;;;;;27.74;27.37;100042.41;5078877;28;1082;-30
2023/04/03 00:59:22;;;;;;;;;;;;;;;28.05;26.98;100042.84;5061022;28;1229;-27
2023/04/03 01:01:48;;;;;;;;;;;;;;;28.20;26.79;100039.94;5061197;28;1913;-26
2023/04/03 01:04:29;;;;;;;;;;;;;;;27.92;26.71;100041.81;5061121;28;1138;-28
2023/04/03 01:06:55;;;;;;;;;;;;;;;26.90;28.65;100027.91;5079019;28;1190;-27
2023/04/03 01:09:21;;;;;;;;;;;;;;;27.84;27.32;100026.59;5078557;28;1039;-31
2023/04/03 01:11:47;;;;;;;;;;;;;;;28.13;26.71;100021.03;5047221;28;1083;-29
2023/04/03 01:14:13;;;;;;;;;;;;;;;28.40;25.99;100018.34;5060974;28;1202;-28
2023/04/03 01:16:39;;;;;;;;;;;;;;;27.46;27.54;100019.84;5060818;28;1134;-32
2023/04/03 01:19:06;;;;;;;;;;;;;;;26.83;28.63;100013.53;5060413;28;1102;-29
2023/04/03 01:21:51;;;;;;;;;;;;;;;28.00;26.82;100021.84;5043837;28;1968;-28
2023/04/03 01:24:33;;;;;;;;;;;;;;;28.18;26.46;100005.00;5060470;28;1225;-31
2023/04/03 01:26:59;;;;;;;;;;;;;;;28.31;26.24;100014.97;5060787;28;1432;-30
2023/04/03 01:29:25;;;;;;;;;;;;;;;27.42;27.45;100020.47;5060860;28;1194;-32
2023/04/03 01:31:55;;;;;;;;;;;;;;;27.17;27.86;100021.84;5060194;28;1149;-29
2023/04/03 01:34:21;;;;;;;;;;;;;;;27.99;26.77;100012.91;5055494;28;1167;-25
2023/04/03 01:36:46;;;;;;;;;;;;;;;28.36;26.24;100017.13;5051865;28;1158;-26
2023/04/03 01:39:12;;;;;;;;;;;;;;;28.02;26.80;100010.81;5060286;28;1166;-27
2023/04/03 01:41:38;;;;;;;;;;;;;;;27.05;28.38;100012.63;5060117;28;1905;-29
2023/04/03 01:44:12;;;;;;;;;;;;;;;27.91;27.17;100031.22;5078318;28;1222;-26
2023/04/03 01:46:38;;;;;;;;;;;;;;;27.90;27.00;100035.78;5047991;28;891;-27
2023/04/03 01:49:04;;;;;;;;;;;;;;;28.20;26.82;100039.94;5058923;28;1325;-30
2023/04/03 01:51:30;;;;;;;;;;;;;;;28.05;26.59;100040.16;5078247;28;1119;-27
2023/04/03 01:53:55;;;;;;;;;;;;;;;26.94;28.68;100043.69;5078158;28;1134;-28
2023/04/03 01:56:21;;;;;;;;;;;;;;;27.87;27.18;100045.13;5060148;28;1160;-29
2023/04/03 01:58:47;;;;;;;;;;;;;;;28.09;26.71;100054.94;5054454;28;1174;-26
2023/04/03 02:01:13;;;;;;;;;;;;;;;28.30;26.51;100051.19;5040027;28;1984;-26
2023/04/03 02:03:39;;;;;;;;;;;;;;;27.65;27.50;100057.09;5057935;28;1155;-27
2023/04/03 02:06:05;;;;;;;;;;;;;;;26.98;28.65;100055.75;5059878;28;1110;-28
2023/04/03 02:08:30;;;;;;;;;;;;;;;28.07;27.07;100065.97;5059569;28;1169;-27
2023/04/03 02:10:56;;;;;;;;;;;;;;;28.14;26.55;100068.66;5065714;28;872;-28
2023/04/03 02:13:22;;;;;;;;;;;;;;;28.26;26.37;100068.84;5045014;28;1150;-29
2023/04/03 02:15:47;;;;;;;;;;;;;;;27.56;27.47;100078.88;5059737;28;1218;-27
2023/04/03 02:18:15;;;;;;;;;;;;;;;27.25;27.89;100066.72;5059523;28;1170;-27
2023/04/03 02:20:41;;;;;;;;;;;;;;;27.99;27.03;100066.97;5059447;28;1067;-26
2023/04/03 02:23:07;;;;;;;;;;;;;;;28.15;26.78;100083.00;5071574;28;2318;-28
2023/04/03 02:25:32;;;;;;;;;;;;;;;28.20;26.01;100078.66;5069781;28;1064;-29
2023/04/03 02:27:58;;;;;;;;;;;;;;;27.45;27.58;100074.06;5077099;28;1159;-26
2023/04/03 02:30:23;;;;;;;;;;;;;;;27.48;27.94;100065.56;5059381;28;1504;-26
2023/04/03 02:32:49;;;;;;;;;;;;;;;28.13;26.94;100072.41;5058914;28;1110;-30
2023/04/03 02:35:15;;;;;;;;;;;;;;;28.30;26.57;100074.69;5047005;28;828;-27
2023/04/03 02:37:40;;;;;;;;;;;;;;;28.04;26.64;100073.66;5057706;28;1222;-28
2023/04/03 02:40:07;;;;;;;;;;;;;;;27.07;28.32;100068.09;5059296;28;1142;-26
2023/04/03 02:42:32;;;;;;;;;;;;;;;27.84;27.32;100069.03;5059058;28;1973;-30
2023/04/03 02:45:00;;;;;;;;;;;;;;;28.01;26.81;100069.47;5077326;28;1233;-30
2023/04/03 02:47:26;;;;;;;;;;;;;;;28.24;26.62;100074.47;5058786;28;1493;-27
2023/04/03 02:49:52;;;;;;;;;;;;;;;28.16;26.65;100079.28;5077232;28;1150;-29
2023/04/03 02:52:18;;;;;;;;;;;;;;;27.16;28.31;100076.03;5077021;28;1075;-32
2023/04/03 02:54:44;;;;;;;;;;;;;;;27.91;27.13;100086.09;5059206;28;1858;-26
2023/04/03 02:57:10;;;;;;;;;;;;;;;28.19;26.78;100082.41;5059016;28;1179;-27
2023/04/03 02:59:36;;;;;;;;;;;;;;;28.36;26.46;100095.56;5076418;28;1069;-26
2023/04/03 03:02:02;;;;;;;;;;;;;;;27.60;27.34;100088.28;5058907;28;1910;-27
2023/04/03 03:04:28;;;;;;;;;;;;;;;26.96;28.90;100090.22;5076804;28;1054;-27
2023/04/03 03:06:53;;;;;;;;;;;;;;;27.97;27.17;100092.56;5058702;28;1221;-26
2023/04/03 03:09:19;;;;;;;;;;;;;;;28.07;27.21;100090.28;5076846;28;1015;-27
2023/04/03 03:11:45;;;;;;;;;;;;;;;28.35;26.20;100097.41;5071364;28;1131;-27
2023/04/03 03:14:10;;;;;;;;;;;;;;;27.51;27.35;100092.16;5056749;28;1163;-30
2023/04/03 03:16:36;;;;;;;;;;;;;;;27.26;27.46;100103.47;5056300;28;1079;-27
2023/04/03 03:19:02;;;;;;;;;;;;;;;26.83;27.38;100099.03;5076802;28;1210;-27
2023/04/03 03:21:27;;;;;;;;;;;;;;;26.17;27.23;100102.63;5045171;28;1918;-26
2023/04/03 03:23:53;;;;;;;;;;;;;;;26.61;25.91;100101.81;5076101;28;884;-30
2023/04/03 03:26:19;;;;;;;;;;;;;;;27.06;24.57;100103.41;5058488;28;1178;-26
2023/04/03 03:28:44;;;;;;;;;;;;;;;26.98;24.33;100107.88;5075912;28;1121;-31
2023/04/03 03:31:12;;;;;;;;;;;;;;;27.05;23.86;100107.94;5058462;28;1147;-27
2023/04/03 03:33:38;;;;;;;;;;;;;;;26.89;23.40;100117.16;5058641;28;1278;-28
2023/04/03 03:36:04;;;;;;;;;;;;;;;26.85;23.26;100119.41;5076146;28;971;-28
2023/04/03 03:38:30;;;;;;;;;;;;;;;26.96;22.55;100133.41;5058448;28;1329;-25
2023/04/03 03:40:57;;;;;;;;;;;;;;;27.04;22.66;100130.59;5058123;28;1403;-26
2023/04/03 03:43:23;;;;;;;;;;;;;;;27.39;22.35;100133.25;5057973;28;1929;-25
2023/04/03 03:45:52;;;;;;;;;;;;;;;28.33;21.42;100131.09;5057996;28;1307;-30
2023/04/03 03:48:17;;;;;;;;;;;;;;;26.49;22.75;100131.97;5057988;28;1302;-28
2023/04/03 03:50:43;;;;;;;;;;;;;;;26.62;23.69;100142.06;5076205;28;1129;-25
2023/04/03 03:53:09;;;;;;;;;;;;;;;27.38;23.11;100146.97;5075885;28;1127;-27
2023/04/03 03:55:35;;;;;;;;;;;;;;;26.55;24.53;100151.13;5075978;28;1095;-25
2023/04/03 03:58:01;;;;;;;;;;;;;;;26.65;24.31;100154.34;5057608;28;1110;-25
2023/04/03 04:00:29;;;;;;;;;;;;;;;28.22;22.46;100146.91;5046881;28;1413;-28
2023/04/03 04:02:56;;;;;;;;;;;;;;;27.66;23.47;100148.75;5041529;28;1910;-26
2023/04/03 04:05:22;;;;;;;;;;;;;;;27.72;23.56;100158.81;5038409;28;1175;-27
2023/04/03 04:07:48;;;;;;;;;;;;;;;27.86;23.82;100156.97;5038383;28;1234;-27
2023/04/03 04:10:14;;;;;;;;;;;;;;;27.83;23.76;100168.19;5046963;28;1296;-29
2023/04/03 04:12:42;;;;;;;;;;;;;;;28.22;23.67;100162.28;5057743;28;1281;-30
2023/04/03 04:15:08;;;;;;;;;;;;;;;28.26;23.56;100163.53;5059852;28;1276;-26
2023/04/03 04:17:35;;;;;;;;;;;;;;;26.96;25.24;100153.13;5045980;28;1072;-26
2023/04/03 04:20:02;;;;;;;;;;;;;;;27.39;24.86;100159.44;5043242;28;1243;-27
2023/04/03 04:22:28;;;;;;;;;;;;;;;28.42;23.50;100156.09;5041408;28;1906;-28
2023/04/03 04:24:54;;;;;;;;;;;;;;;27.74;23.98;100164.81;5040939;28;1246;-29
2023/04/03 04:27:20;;;;;;;;;;;;;;;26.82;25.50;100159.44;5066377;28;1015;-28
2023/04/03 04:29:45;;;;;;;;;;;;;;;27.85;24.45;100165.28;5061818;28;1274;-26
2023/04/03 04:32:11;;;;;;;;;;;;;;;28.37;23.83;100162.13;5061808;28;1161;-29
2023/04/03 04:34:37;;;;;;;;;;;;;;;28.07;23.77;100155.19;5057839;28;1146;-28
2023/04/03 04:37:03;;;;;;;;;;;;;;;27.01;25.76;100150.69;5052205;28;1106;-25
2023/04/03 04:39:28;;;;;;;;;;;;;;;27.47;25.45;100155.75;5061184;28;1277;-29
2023/04/03 04:41:56;;;;;;;;;;;;;;;28.13;24.31;100158.09;5061327;28;1902;-29
2023/04/03 04:44:24;;;;;;;;;;;;;;;28.54;23.81;100161.72;5061411;28;1303;-29
2023/04/03 04:46:50;;;;;;;;;;;;;;;27.55;24.76;100157.44;5060932;28;1135;-31
2023/04/03 04:49:16;;;;;;;;;;;;;;;26.85;25.67;100150.97;5041510;28;1254;-29
2023/04/03 04:51:42;;;;;;;;;;;;;;;27.99;24.33;100156.19;5072364;28;1031;-27
2023/04/03 04:54:09;;;;;;;;;;;;;;;28.35;24.18;100158.78;5061036;28;1216;-28
2023/04/03 04:56:35;;;;;;;;;;;;;;;27.83;24.52;100153.84;5060653;28;1222;-27
2023/04/03 04:59:01;;;;;;;;;;;;;;;27.12;25.88;100149.31;5058043;28;1308;-28
2023/04/03 05:01:27;;;;;;;;;;;;;;;28.07;24.52;100148.94;5050466;28;1902;-32
2023/04/03 05:04:02;;;;;;;;;;;;;;;28.45;23.95;100140.28;5060843;28;1256;-28
2023/04/03 05:06:29;;;;;;;;;;;;;;;27.73;25.02;100157.75;5078953;28;1227;-30
2023/04/03 05:08:56;;;;;;;;;;;;;;;26.90;26.23;100156.59;5077809;28;1269;-28
2023/04/03 05:11:22;;;;;;;;;;;;;;;28.29;24.47;100160.44;5056155;28;1119;-26
2023/04/03 05:13:50;;;;;;;;;;;;;;;27.77;24.65;100160.06;5050739;28;1145;-32
2023/04/03 05:16:16;;;;;;;;;;;;;;;27.14;24.94;100159.94;5059326;28;1237;-27
2023/04/03 05:18:42;;;;;;;;;;;;;;;26.98;25.59;100167.25;5060563;28;1626;-33
2023/04/03 05:21:12;;;;;;;;;;;;;;;27.39;25.25;100149.47;5059647;28;1476;-28
2023/04/03 05:23:38;;;;;;;;;;;;;;;28.15;23.75;100142.50;5078475;28;1913;-30
2023/04/03 05:26:05;;;;;;;;;;;;;;;28.91;22.54;100142.38;5060487;28;1303;-24
2023/04/03 05:28:31;;;;;;;;;;;;;;;27.89;23.01;100149.50;5049235;28;1150;-25
2023/04/03 05:30:57;;;;;;;;;;;;;;;25.79;24.32;100156.75;5058733;28;1096;-22
2023/04/03 05:33:26;;;;;;;;;;;;;;;26.80;24.69;100156.09;5052114;28;1105;-24
2023/04/03 05:35:54;;;;;;;;;;;;;;;26.47;24.40;100162.88;5062597;28;1307;-26
2023/04/03 05:38:24;;;;;;;;;;;;;;;26.04;24.89;100159.13;5058287;28;1119;-28
2023/04/03 05:40:51;;;;;;;;;;;;;;;27.26;23.92;100166.44;5059855;28;1101;-26
2023/04/03 05:43:17;;;;;;;;;;;;;;;27.17;24.78;100175.72;5078137;28;1945;-28
2023/04/03 05:45:43;;;;;;;;;;;;;;;25.83;26.64;100176.88;5060580;28;1094;-26
2023/04/03 05:48:09;;;;;;;;;;;;;;;25.82;26.62;100188.69;5049472;28;1144;-25
2023/04/03 05:50:35;;;;;;;;;;;;;;;26.35;25.46;100182.28;5044575;28;1143;-30
2023/04/03 05:53:01;;;;;;;;;;;;;;;27.26;24.55;100177.22;5078035;28;1078;-27
2023/04/03 05:55:29;;;;;;;;;;;;;;;27.08;24.75;100176.88;5059741;28;1405;-25
2023/04/03 05:57:55;;;;;;;;;;;;;;;26.02;26.61;100191.66;5060132;28;1179;-26
2023/04/03 06:00:21;;;;;;;;;;;;;;;25.99;26.15;100186.59;5078066;28;1099;-28
2023/04/03 06:02:55;;;;;;;;;;;;;;;26.87;25.24;100181.28;5060141;28;1906;-32
2023/04/03 06:05:24;;;;;;;;;;;;;;;27.05;25.08;100185.38;5059933;28;1218;-28
2023/04/03 06:07:49;;;;;;;;;;;;;;;26.97;25.38;100189.03;5046853;28;1148;-26
2023/04/03 06:10:15;;;;;;;;;;;;;;;27.39;25.05;100195.38;5059819;28;1306;-26
2023/04/03 06:12:41;;;;;;;;;;;;;;;27.19;25.45;100195.28;5046199;28;1221;-28
2023/04/03 06:15:08;;;;;;;;;;;;;;;26.00;26.79;100188.28;5071074;28;1233;-25
2023/04/03 06:17:33;;;;;;;;;;;;;;;26.03;26.51;100193.31;5039880;28;1254;-29
2023/04/03 06:19:59;;;;;;;;;;;;;;;26.99;25.25;100185.09;5067689;28;1012;-31
2023/04/03 06:22:25;;;;;;;;;;;;;;;27.01;25.73;100195.69;5059291;28;2305;-29
2023/04/03 06:24:51;;;;;;;;;;;;;;;26.60;25.73;100189.97;5059394;28;1119;-27
2023/04/03 06:27:17;;;;;;;;;;;;;;;26.82;25.57;100195.38;5076574;28;1325;-27
2023/04/03 06:29:44;;;;;;;;;;;;;;;27.09;24.98;100205.56;5076315;28;1083;-30
2023/04/03 06:32:10;;;;;;;;;;;;;;;26.80;25.86;100200.13;5076703;28;1117;-27
2023/04/03 06:34:35;;;;;;;;;;;;;;;25.88;27.20;100206.81;5071404;28;1290;-27
2023/04/03 06:37:01;;;;;;;;;;;;;;;26.99;25.64;100204.00;5073164;28;924;-29
2023/04/03 06:39:27;;;;;;;;;;;;;;;27.08;25.59;100207.44;5076760;28;1015;-29
2023/04/03 06:41:52;;;;;;;;;;;;;;;26.04;27.20;100216.53;5077173;28;1910;-30
2023/04/03 06:44:25;;;;;;;;;;;;;;;25.88;27.49;100235.59;5059175;28;1121;-29
2023/04/03 06:46:52;;;;;;;;;;;;;;;27.34;25.34;100238.34;5062027;28;1297;-28
2023/04/03 06:49:18;;;;;;;;;;;;;;;26.83;25.70;100244.75;5066760;28;896;-30
2023/04/03 06:51:44;;;;;;;;;;;;;;;26.09;27.39;100255.56;5057837;28;1154;-29
2023/04/03 06:54:10;;;;;;;;;;;;;;;26.13;26.71;100260.38;5076958;28;1012;-28
2023/04/03 06:56:35;;;;;;;;;;;;;;;26.90;25.36;100261.84;5076483;28;1030;-29
2023/04/03 06:59:01;;;;;;;;;;;;;;;26.78;25.62;100256.13;5076814;28;1248;-29
2023/04/03 07:01:28;;;;;;;;;;;;;;;26.56;25.56;100252.63;5043930;28;1902;-30
2023/04/03 07:03:54;;;;;;;;;;;;;;;26.33;26.21;100259.81;5056984;28;1055;-28
2023/04/03 07:06:20;;;;;;;;;;;;;;;26.78;25.29;100250.75;5071362;28;1055;-28
2023/04/03 07:08:46;;;;;;;;;;;;;;;26.94;25.24;100254.22;5076461;28;1123;-30
2023/04/03 07:11:11;;;;;;;;;;;;;;;26.97;24.92;100251.13;5076691;28;1034;-33
2023/04/03 07:13:37;;;;;;;;;;;;;;;26.85;25.13;100261.59;5068134;28;844;-27
2023/04/03 07:16:04;;;;;;;;;;;;;;;26.93;25.13;100266.03;5065707;28;1123;-28
2023/04/03 07:18:30;;;;;;;;;;;;;;;26.58;25.58;100269.41;5076516;28;1127;-28
2023/04/03 07:20:56;;;;;;;;;;;;;;;26.51;25.66;100263.94;5076636;28;1051;-27
2023/04/03 07:23:22;;;;;;;;;;;;;;;26.61;25.39;100267.19;5076442;28;1906;-31
2023/04/03 07:25:48;;;;;;;;;;;;;;;27.28;24.57;100268.03;5075113;28;1174;-28
2023/04/03 07:28:14;;;;;;;;;;;;;;;26.04;24.89;100267.72;5076165;28;1300;-31
2023/04/03 07:30:46;;;;;;;;;;;;;;;25.79;25.54;100259.94;5076473;28;1039;-28
2023/04/03 07:33:12;;;;;;;;;;;;;;;26.06;25.56;100259.47;5057978;28;1142;-30
2023/04/03 07:35:39;;;;;;;;;;;;;;;26.81;24.90;100263.84;5076262;28;1196;-27
2023/04/03 07:38:04;;;;;;;;;;;;;;;25.63;26.30;100262.81;5062549;28;1086;-28
2023/04/03 07:40:30;;;;;;;;;;;;;;;26.24;25.97;100277.94;5075890;28;1147;-31
2023/04/03 07:42:56;;;;;;;;;;;;;;;26.22;25.43;100276.47;5075602;28;1925;-27
2023/04/03 07:45:22;;;;;;;;;;;;;;;26.75;24.39;100276.25;5075540;28;1112;-31
2023/04/03 07:47:48;;;;;;;;;;;;;;;24.86;26.56;100287.00;5075456;28;1054;-27
2023/04/03 07:50:14;;;;;;;;;;;;;;;23.81;27.84;100280.75;5077692;28;1189;-31
2023/04/03 07:52:40;;;;;;;;;;;;;;;25.70;26.01;100281.78;5086661;28;1011;-27
2023/04/03 07:55:06;;;;;;;;;;;;;;;27.14;23.54;100292.22;5076233;28;1063;-26
2023/04/03 07:57:31;;;;;;;;;;;;;;;25.49;25.88;100302.97;5076022;28;1090;-31
2023/04/03 07:59:57;;;;;;;;;;;;;;;25.85;25.53;100306.88;5075247;28;1506;-30
2023/04/03 08:02:22;;;;;;;;;;;;;;;26.71;24.65;100307.34;5067473;28;1973;-29
2023/04/03 08:04:48;;;;;;;;;;;;;;;26.11;25.59;100302.06;5062299;28;1091;-30
2023/04/03 08:07:13;;;;;;;;;;;;;;;26.02;25.66;100302.16;5080001;28;1256;-30
2023/04/03 08:09:39;;;;;;;;;;;;;;;26.01;25.29;100300.44;5080207;28;1123;-28
2023/04/03 08:12:05;;;;;;;;;;;;;;;27.04;23.74;100297.09;5079869;28;1178;-27
2023/04/03 08:14:31;;;;;;;;;;;;;;;25.41;26.22;100292.28;5079831;28;1200;-29
2023/04/03 08:16:58;;;;;;;;;;;;;;;24.25;27.35;100297.41;5079859;28;1229;-28
2023/04/03 08:19:23;;;;;;;;;;;;;;;26.72;24.93;100306.31;5080030;28;1126;-27
2023/04/03 08:21:49;;;;;;;;;;;;;;;26.11;25.60;100308.25;5079472;28;1909;-26
2023/04/03 08:24:15;;;;;;;;;;;;;;;26.27;25.49;100306.41;5079530;28;1154;-31
2023/04/03 08:26:40;;;;;;;;;;;;;;;27.10;24.54;100301.72;5060891;28;1102;-29
2023/04/03 08:29:06;;;;;;;;;;;;;;;26.51;25.00;100301.72;5071727;28;1087;-28
2023/04/03 08:31:32;;;;;;;;;;;;;;;26.65;24.50;100308.09;5048158;28;1064;-26
2023/04/03 08:33:58;;;;;;;;;;;;;;;27.05;24.03;100294.22;5079322;28;1039;-29
2023/04/03 08:36:25;;;;;;;;;;;;;;;27.72;23.20;100295.78;5079020;28;1102;-28
2023/04/03 08:38:50;;;;;;;;;;;;;;;26.55;24.86;100296.78;5079265;28;1035;-26
2023/04/03 08:41:20;;;;;;;;;;;;;;;26.72;24.68;100292.84;5071889;28;1063;-28
2023/04/03 08:43:54;;;;;;;;;;;;;;;26.82;24.64;100287.13;5073069;28;1906;-29
2023/04/03 08:46:20;;;;;;;;;;;;;;;27.51;23.88;100301.00;5068571;28;1123;-26
2023/04/03 08:48:45;;;;;;;;;;;;;;;25.95;25.45;100301.22;5061003;28;1493;-26
2023/04/03 08:51:15;;;;;;;;;;;;;;;23.50;28.62;100289.53;5061729;28;1148;-32
2023/04/03 08:53:42;;;;;;;;;;;;;;;25.61;26.08;100292.59;5079344;28;1113;-30
2023/04/03 08:56:08;;;;;;;;;;;;;;;26.06;25.30;100301.78;5061370;28;1108;-28
2023/04/03 08:58:48;;;;;;;;;;;;;;;26.67;24.44;100302.50;5060716;28;1179;-31
2023/04/03 09:01:16;;;;;;;;;;;;;;;26.41;24.29;100297.47;5060818;28;1425;-26
2023/04/03 09:03:42;;;;;;;;;;;;;;;26.36;25.18;100296.38;5079080;28;1917;-28
2023/04/03 09:06:13;;;;;;;;;;;;;;;24.06;28.01;100286.03;5078795;28;1169;-32
2023/04/03 09:08:42;;;;;;;;;;;;;;;23.13;30.91;100291.69;5060152;28;1159;-29
2023/04/03 09:11:16;;;;;;;;;;;;;;;23.63;29.91;100283.63;5078079;28;1055;-26
2023/04/03 09:13:51;;;;;;;;;;;;;;;25.86;26.06;100281.59;5060114;28;1006;-29
2023/04/03 09:16:20;;;;;;;;;;;;;;;26.92;24.65;100292.19;5060245;28;1210;-26
2023/04/03 09:18:46;;;;;;;;;;;;;;;23.60;29.43;100286.66;5078741;28;1143;-28
2023/04/03 09:21:22;;;;;;;;;;;;;;;22.73;31.21;100276.25;5060183;28;1093;-28
2023/04/03 09:23:51;;;;;;;;;;;;;;;24.62;28.55;100275.38;5060577;28;1981;-26
2023/04/03 09:26:25;;;;;;;;;;;;;;;24.76;28.01;100280.00;5073964;28;1119;-30
2023/04/03 09:28:51;;;;;;;;;;;;;;;25.63;26.90;100282.53;5041092;28;1167;-28
2023/04/03 09:31:20;;;;;;;;;;;;;;;26.32;26.04;100290.50;5040803;28;1067;-30
2023/04/03 09:33:46;;;;;;;;;;;;;;;26.93;25.57;100268.72;5058830;28;1226;-28
2023/04/03 09:36:12;;;;;;;;;;;;;;;24.60;29.22;100275.56;5060287;28;1127;-25
2023/04/03 09:38:38;;;;;;;;;;;;;;;24.25;29.75;100267.00;5078119;28;840;-25
2023/04/03 09:41:05;;;;;;;;;;;;;;;25.60;27.83;100276.63;5060665;28;1234;-25
2023/04/03 09:43:31;;;;;;;;;;;;;;;26.71;26.26;100276.84;5077978;28;1906;-26
2023/04/03 09:46:16;;;;;;;;;;;;;;;26.72;26.19;100282.03;5078038;28;1532;-27
2023/04/03 09:48:49;;;;;;;;;;;;;;;24.40;30.37;100281.38;5078184;28;1036;-30
2023/04/03 09:51:15;;;;;;;;;;;;;;;25.07;29.74;100281.00;5060449;28;1141;-30
2023/04/03 09:53:41;;;;;;;;;;;;;;;26.30;27.17;100300.63;5077560;28;1455;-29
2023/04/03 09:56:10;;;;;;;;;;;;;;;26.88;26.42;100282.78;5078290;28;1019;-28
2023/04/03 09:58:42;;;;;;;;;;;;;;;26.90;26.74;100283.44;5061378;28;1124;-28
2023/04/03 10:01:09;;;;;;;;;;;;;;;27.58;25.39;100284.00;5068107;28;1083;-29
2023/04/03 10:03:36;;;;;;;;;;;;;;;26.32;26.95;100295.03;5043163;28;1952;-29
2023/04/03 10:06:02;;;;;;;;;;;;;;;25.74;28.14;100296.56;5056455;28;1170;-27
2023/04/03 10:08:29;;;;;;;;;;;;;;;26.99;27.11;100284.97;5074424;28;1098;-28
2023/04/03 10:11:15;;;;;;;;;;;;;;;26.38;33.99;100294.31;5077773;28;1067;-29
2023/04/03 10:13:59;;;;;;;;;;;;;;;25.41;33.66;100293.13;5070956;28;1046;-29
2023/04/03 10:16:41;;;;;;;;;;;;;;;26.49;29.62;100299.19;5059677;28;1119;-28
2023/04/03 10:19:13;;;;;;;;;;;;;;;26.91;27.89;100298.59;5077104;28;1202;-28
2023/04/03 10:21:54;;;;;;;;;;;;;;;26.25;27.79;100293.09;5059605;28;1902;-29
2023/04/03 10:24:23;;;;;;;;;;;;;;;26.19;27.88;100293.88;5059342;28;1159;-29
2023/04/03 10:26:48;;;;;;;;;;;;;;;27.34;26.17;100289.66;5070125;28;1060;-28
2023/04/03 10:29:20;;;;;;;;;;;;;;;26.85;27.43;100285.88;5057404;28;1214;-27
2023/04/03 10:32:08;;;;;;;;;;;;;;;26.60;27.58;100283.56;5057396;28;1154;-33
2023/04/03 10:34:43;;;;;;;;;;;;;;;27.08;27.02;100279.47;5056857;28;1493;-31
2023/04/03 10:37:23;;;;;;;;;;;;;;;26.92;27.25;100278.69;5051266;28;1225;-30
2023/04/03 10:39:49;;;;;;;;;;;;;;;26.02;28.83;100277.88;5066634;28;1132;-30
2023/04/03 10:42:18;;;;;;;;;;;;;;;26.87;27.63;100276.59;5076530;28;1897;-31
2023/04/03 10:45:02;;;;;;;;;;;;;;;27.08;27.62;100269.53;5067373;28;1098;-31
2023/04/03 10:47:34;;;;;;;;;;;;;;;26.32;28.21;100268.06;5074738;28;1123;-28
2023/04/03 10:50:06;;;;;;;;;;;;;;;26.47;28.15;100268.06;5064251;28;1056;-28
2023/04/03 10:52:34;;;;;;;;;;;;;;;27.14;27.11;100274.13;5056888;28;1371;-27
2023/04/03 10:55:18;;;;;;;;;;;;;;;26.99;27.54;100267.97;5056888;28;1226;-27
2023/04/03 10:57:44;;;;;;;;;;;;;;;26.38;28.18;100259.25;5059596;28;1234;-31
2023/04/03 11:00:15;;;;;;;;;;;;;;;27.24;27.11;100263.00;5046467;28;1215;-29
2023/04/03 11:02:44;;;;;;;;;;;;;;;27.43;26.49;100252.53;5053483;28;1985;-30
2023/04/03 11:05:18;;;;;;;;;;;;;;;26.83;27.57;100258.25;5057510;28;1143;-27
2023/04/03 11:07:46;;;;;;;;;;;;;;;26.39;28.11;100256.34;5072073;28;1027;-28
2023/04/03 11:10:13;;;;;;;;;;;;;;;26.75;27.08;100245.72;5068817;28;1198;-29
2023/04/03 11:12:43;;;;;;;;;;;;;;;27.24;26.32;100264.88;5062620;28;1174;-31
2023/04/03 11:15:13;;;;;;;;;;;;;;;26.83;27.18;100258.25;5065471;28;825;-30
2023/04/03 11:17:42;;;;;;;;;;;;;;;26.36;27.88;100261.31;5038738;28;1250;-32
2023/04/03 11:20:27;;;;;;;;;;;;;;;27.28;26.66;100260.75;5066658;28;1035;-30
2023/04/03 11:22:58;;;;;;;;;;;;;;;27.34;26.64;100265.34;5057567;28;1910;-30
2023/04/03 11:25:24;;;;;;;;;;;;;;;26.71;27.27;100260.66;5060058;28;1312;-31
2023/04/03 11:28:01;;;;;;;;;;;;;;;26.74;27.42;100257.56;5056195;28;1305;-31
2023/04/03 11:30:39;;;;;;;;;;;;;;;27.24;26.76;100260.28;5037746;28;1230;-33
2023/04/03 11:33:05;;;;;;;;;;;;;;;26.67;27.55;100254.78;5066896;28;1067;-32
2023/04/03 11:35:31;;;;;;;;;;;;;;;26.52;27.83;100265.63;5067980;28;1059;-31
2023/04/03 11:37:56;;;;;;;;;;;;;;;27.16;26.93;100273.94;5058297;28;1087;-28
2023/04/03 11:40:26;;;;;;;;;;;;;;;27.48;26.57;100273.56;5076186;28;1150;-28
2023/04/03 11:42:55;;;;;;;;;;;;;;;26.51;27.60;100261.25;5058139;28;1915;-28
2023/04/03 11:45:27;;;;;;;;;;;;;;;26.20;28.22;100265.03;5057634;28;1059;-27
2023/04/03 11:47:52;;;;;;;;;;;;;;;26.81;27.29;100261.16;5075834;28;1166;-26
2023/04/03 11:50:36;;;;;;;;;;;;;;;27.59;26.23;100262.19;5071641;28;1067;-29
2023/04/03 11:53:05;;;;;;;;;;;;;;;26.75;27.34;100273.56;5063357;28;1598;-28
2023/04/03 11:55:31;;;;;;;;;;;;;;;26.59;27.96;100265.72;5065138;28;981;-28
2023/04/03 11:58:00;;;;;;;;;;;;;;;26.50;27.96;100273.06;5069189;28;1199;-27
2023/04/03 12:00:44;;;;;;;;;;;;;;;26.77;27.47;100271.50;5064527;28;1187;-33
2023/04/03 12:03:28;;;;;;;;;;;;;;;27.25;26.93;100274.63;5058498;28;1975;-31
2023/04/03 12:06:06;;;;;;;;;;;;;;;26.48;27.95;100273.28;5064194;28;1195;-27
2023/04/03 12:08:45;;;;;;;;;;;;;;;26.25;27.37;100285.00;5066017;28;1014;-27
2023/04/03 12:11:11;;;;;;;;;;;;;;;26.06;27.75;100283.72;5056066;28;1064;-28
2023/04/03 12:13:37;;;;;;;;;;;;;;;26.61;26.93;100266.38;5072547;28;1282;-27
2023/04/03 12:16:03;;;;;;;;;;;;;;;26.96;25.82;100261.06;5048651;28;935;-29
2023/04/03 12:18:45;;;;;;;;;;;;;;;24.37;28.98;100262.94;5040502;28;1171;-30
2023/04/03 12:21:12;;;;;;;;;;;;;;;23.52;30.60;100262.53;5075291;28;1011;-29
2023/04/03 12:23:55;;;;;;;;;;;;;;;26.38;26.85;100251.16;5061562;28;1914;-28
2023/04/03 12:26:22;;;;;;;;;;;;;;;27.30;25.35;100245.19;5059904;28;1516;-26
2023/04/03 12:28:48;;;;;;;;;;;;;;;24.68;28.68;100242.38;5057897;28;1291;-30
2023/04/03 12:31:13;;;;;;;;;;;;;;;23.56;30.27;100247.72;5053205;28;1433;-31
2023/04/03 12:33:46;;;;;;;;;;;;;;;25.78;27.51;100236.72;5055171;28;958;-30
2023/04/03 12:36:13;;;;;;;;;;;;;;;26.62;25.97;100236.50;5075348;28;1182;-26
2023/04/03 12:39:05;;;;;;;;;;;;;;;26.16;26.28;100233.06;5055558;28;1099;-28
2023/04/03 12:41:35;;;;;;;;;;;;;;;23.36;31.09;100230.13;5056019;28;1692;-27
2023/04/03 12:44:04;;;;;;;;;;;;;;;24.64;29.65;100223.09;5049733;28;1044;-29
2023/04/03 12:46:35;;;;;;;;;;;;;;;26.61;26.29;100210.53;5075127;28;1182;-33
2023/04/03 12:49:01;;;;;;;;;;;;;;;26.77;26.20;100209.44;5077404;28;1063;-29
2023/04/03 12:51:35;;;;;;;;;;;;;;;26.52;26.12;100207.16;5060712;28;1067;-27